Volga, South Dakota
Current Conditions -  °F | °C
As of 12:30 AM on Wednesday 28 Jan 2015 (Local Time) from KMDS Reporting Station
Clear Clear  
Wind Chill: 24°   Ceiling: Unl
Heat Index: 34°   Visibility: 10mi
Dew Point: 34°   Wind: 15mph
Humidity: 100%   Direction: 180°S
Pressure: 29.9"   Gusts: 21mph
Location:  44.32°N, 96.93°W
Report Text: KMDS 280630Z AUTO 18013G18KT 10SM CLR 01/01 A2990 RMK AO2
Loading
Personal Weather Stations






























Interactive Weather Map New forecast layout! Learn more

10-Day Weather Forecast

Advertisements
Track Severe Weather on mobile